Monday, August 20, 2018, 8:02 PM EDT
Back to Local

KALB, Albany International Airport

Location: Latham, NY, United States Lat: 42.75
Local Time: 8:02 PM EDT ( 0:02 GMT) Lon: -73.8
Time Zone: US/Eastern Elev: 285 ft

Show me the last for .
Show Decoded

2018-08-20 18:51 METAR KALB 202251Z 14003KT 10SM FEW045 FEW065 FEW250 25/14 A3011 RMK AO2 SLP196
                 T02500144 =
2018-08-20 17:51 METAR KALB 202151Z 15004KT 10SM FEW044 SCT065 SCT250 25/15 A3011 RMK AO2 SLP195
                 SCT065 V FEW T02500150 =
2018-08-20 16:51 METAR KALB 202051Z 13006KT 10SM FEW044 SCT065 BKN250 26/15 A3011 RMK AO2 SLP195
                 SCT V FEW T02610150 58013 =
2018-08-20 15:51 METAR KALB 201951Z VRB04KT 10SM FEW044 BKN065 BKN250 25/14 A3013 RMK AO2 SLP202
                 T02500144 =
2018-08-20 14:51 METAR KALB 201851Z 21003KT 10SM SCT044 BKN060 BKN250 25/14 A3014 RMK AO2 SLP206
                 T02500139 =
2018-08-20 13:51 METAR KALB 201751Z 29003KT 10SM SCT038 BKN060 BKN250 26/14 A3015 RMK AO2 SLP207
                 T02610144 10267 20178 56015 =
2018-08-20 12:51 METAR KALB 201651Z 00000KT 10SM BKN038 BKN250 24/15 A3016 RMK AO2 SLP210
                 T02390150 =
2018-08-20 11:51 METAR KALB 201551Z 06007KT 10SM SCT033 BKN250 24/16 A3017 RMK AO2 SLP215
                 T02440161 =
2018-08-20 10:51 METAR KALB 201451Z 00000KT 10SM SCT030 SCT250 23/16 A3019 RMK AO2 SLP223
                 T02280156 50001 =
2018-08-20 09:51 METAR KALB 201351Z 00000KT 10SM FEW025 SCT250 22/16 A3020 RMK AO2 SLP225
                 T02170156 =
2018-08-20 08:51 METAR KALB 201251Z 32004KT 10SM FEW020 FEW070 SCT250 20/16 A3019 RMK AO2 SLP222
                 T02000156 =
2018-08-20 07:51 METAR KALB 201151Z 33004KT 10SM FEW070 FEW250 18/15 A3019 RMK AO2 SLP222
                 T01780150 10194 20156 51012 =
2018-08-20 06:51 METAR KALB 201051Z 00000KT 10SM FEW060 FEW250 16/14 A3018 RMK AO2 SLP219
                 T01610144 =
2018-08-20 05:51 METAR KALB 200951Z 04003KT 10SM FEW060 FEW200 16/14 A3017 RMK AO2 SLP215
                 T01560139 =
2018-08-20 04:51 METAR KALB 200851Z 00000KT 10SM FEW200 16/14 A3016 RMK AO2 SLP210 T01610144
                 53008 =
2018-08-20 03:51 METAR KALB 200751Z 35003KT 10SM FEW200 16/13 A3015 RMK AO2 SLP208 T01560133 =
2018-08-20 02:51 METAR KALB 200651Z 00000KT 10SM SCT200 19/13 A3013 RMK AO2 SLP201 T01890133 =
2018-08-20 01:51 METAR KALB 200551Z 18003KT 10SM BKN200 20/13 A3013 RMK AO2 SLP202 T02000133
                 10239 20194 50007 =
2018-08-20 00:51 METAR KALB 200451Z 15004KT 10SM BKN180 21/13 A3013 RMK AO2 SLP203 T02060133
                 402670189 =
2018-08-19 23:51 METAR KALB 200351Z 16007KT 10SM FEW060 BKN190 22/13 A3012 RMK AO2 SLP199
                 T02170128 =
2018-08-19 22:51 METAR KALB 200251Z 17005KT 10SM FEW055 OVC180 21/14 A3011 RMK AO2 SLP195
                 T02110144 51013 =
2018-08-19 21:51 METAR KALB 200151Z 00000KT 10SM FEW055 BKN220 OVC250 22/14 A3010 RMK AO2 SLP191
                 T02220144 =
2018-08-19 20:51 METAR KALB 200051Z 00000KT 10SM SCT055 BKN220 OVC250 23/14 A3009 RMK AO2 SLP188
                 T02280144 =

Support USWX by starting your Amazon purchase here.